Time;durP1;ratioP1;P1;durP2;ratioP2;P2;SDS_P1;SDS_P2;PMS_P1;PMS_P2;Temp;Humidity;BMP_temperature;BMP_pressure;BME280_temperature;BME280_humidity;BME280_pressure;Samples;Min_cycle;Max_cycle;Signal;HPM_P1;HPM_P2
2024/03/17 00:01:09;;;;;;;44.80;30.00;;;;;;;13.45;78.96;99781.45;104474;1252;73475;-62
2024/03/17 00:03:43;;;;;;;41.40;29.30;;;;;;;13.47;78.56;99782.75;105784;1255;69226;-63
2024/03/17 00:06:56;;;;;;;42.20;30.20;;;;;;;13.49;78.60;99783.31;106526;1251;71900;-64
2024/03/17 00:09:24;;;;;;;44.60;30.60;;;;;;;13.54;78.94;99778.67;105380;1267;60729;-64
2024/03/17 00:11:58;;;;;;;;;;;;;;;13.55;78.38;99774.96;106350;1254;60507;-67
2024/03/17 00:15:09;;;;;;;42.70;29.50;;;;;;;13.54;78.80;99774.81;104591;1255;73547;-62
2024/03/17 00:17:36;;;;;;;44.80;28.60;;;;;;;13.52;78.69;99767.88;105383;1251;70544;-67
2024/03/17 00:20:18;;;;;;;42.20;29.50;;;;;;;13.44;78.47;99756.50;106790;1255;72550;-62
2024/03/17 00:23:29;;;;;;;44.80;30.40;;;;;;;13.91;76.74;99770.66;106232;1256;60582;-61
2024/03/17 00:26:08;;;;;;;43.50;28.80;;;;;;;14.22;71.98;99762.14;105207;1256;60470;-61
2024/03/17 00:28:34;;;;;;;39.50;28.80;;;;;;;13.72;75.91;99760.83;106646;1253;73090;-62
2024/03/17 00:31:45;;;;;;;43.40;29.90;;;;;;;13.70;76.44;99760.74;105058;1253;69288;-62
2024/03/17 00:34:56;;;;;;;40.30;28.30;;;;;;;13.65;76.86;99742.00;105457;1253;72822;-64
2024/03/17 00:41:11;;;;;;;37.20;28.30;;;;;;;13.70;76.37;99747.73;105212;1252;60536;-63
2024/03/17 00:43:37;;;;;;;40.70;29.90;;;;;;;13.66;76.13;99747.23;104892;1256;73658;-64
2024/03/17 00:46:48;;;;;;;39.40;30.00;;;;;;;13.72;74.82;99742.33;104944;1270;69383;-64
2024/03/17 00:49:21;;;;;;;41.70;29.60;;;;;;;13.57;76.59;99740.67;105221;1253;72978;-65
2024/03/17 00:56:54;;;;;;;35.30;27.00;;;;;;;13.63;75.76;99731.38;105803;1252;60457;-63
2024/03/17 00:59:30;;;;;;;36.40;28.10;;;;;;;13.56;76.14;99728.39;105985;1253;73498;-64
2024/03/17 01:02:03;;;;;;;39.50;29.60;;;;;;;13.62;75.78;99725.05;104611;1253;70224;-63
2024/03/17 01:05:05;;;;;;;40.40;28.90;;;;;;;13.53;76.51;99722.41;106038;1251;72148;-61
2024/03/17 01:08:16;;;;;;;38.90;29.00;;;;;;;13.48;76.93;99709.97;105790;1253;61572;-61
2024/03/17 01:11:18;;;;;;;37.90;28.10;;;;;;;13.54;76.78;99716.34;104296;1251;60613;-62
2024/03/17 01:13:51;;;;;;;40.50;27.90;;;;;;;13.53;76.79;99716.23;105137;1253;73532;-61
2024/03/17 01:16:23;;;;;;;37.10;29.10;;;;;;;13.55;76.62;99715.95;104713;1256;70275;-61
2024/03/17 01:19:34;;;;;;;39.50;29.10;;;;;;;13.50;76.93;99710.38;105136;1252;72792;-62
2024/03/17 01:22:45;;;;;;;35.40;27.50;;;;;;;13.56;76.27;99711.27;104510;1254;60797;-61
2024/03/17 01:25:12;;;;;;;37.60;27.20;;;;;;;13.58;76.02;99711.73;104803;1256;60553;-62
2024/03/17 01:28:23;;;;;;;40.90;28.90;;;;;;;13.63;75.38;99712.70;104598;1255;74153;-62
2024/03/17 01:30:56;;;;;;;38.20;27.10;;;;;;;13.62;75.63;99710.10;105362;1257;70056;-62
2024/03/17 01:34:06;;;;;;;40.20;29.00;;;;;;;13.66;75.15;99707.60;105155;1252;73675;-62
2024/03/17 01:40:21;;;;;;;36.80;27.80;;;;;;;13.67;75.10;99704.39;105223;1255;60422;-61
2024/03/17 01:42:56;;;;;;;36.30;29.00;;;;;;;13.68;74.92;99705.23;105049;1251;74144;-62
2024/03/17 01:45:31;;;;;;;38.20;28.90;;;;;;;13.66;74.66;99703.18;105387;1251;70061;-62
2024/03/17 01:48:41;;;;;;;39.30;28.30;;;;;;;13.69;74.45;99703.89;105755;1253;71444;-62
2024/03/17 01:51:15;;;;;;;35.10;27.90;;;;;;;13.76;74.06;99703.73;106589;1253;61665;-61
2024/03/17 01:53:48;;;;;;;39.60;28.50;;;;;;;13.81;73.71;99698.83;105806;1253;60550;-62
2024/03/17 01:56:58;;;;;;;37.50;28.90;;;;;;;13.79;73.72;99696.68;104575;1256;74282;-62
2024/03/17 02:00:12;;;;;;;36.20;27.90;;;;;;;13.76;73.91;99700.71;105003;1256;69830;-62
2024/03/17 02:03:16;;;;;;;35.50;27.00;;;;;;;13.78;73.77;99690.02;104821;1251;72531;-63
2024/03/17 02:06:27;;;;;;;32.10;26.20;;;;;;;13.80;73.57;99687.97;104571;1253;60557;-62
2024/03/17 02:09:03;;;;;;;36.40;26.40;;;;;;;14.23;70.37;99682.58;104626;1251;60534;-63
2024/03/17 02:12:14;;;;;;;35.10;27.40;;;;;;;14.17;70.35;99681.50;104955;1251;74341;-62
2024/03/17 02:14:41;;;;;;;34.30;25.60;;;;;;;13.94;70.97;99682.07;105310;1251;69432;-63
2024/03/17 02:17:09;;;;;;;;;;;;;;;13.93;71.30;99683.55;105711;1251;72356;-62
2024/03/17 02:20:22;;;;;;;32.60;25.70;;;;;;;13.96;71.37;99680.55;104753;1267;61346;-63
2024/03/17 02:27:08;;;;;;;35.70;26.70;;;;;;;13.82;72.50;99681.52;104947;1254;75162;-63
2024/03/17 02:30:09;;;;;;;31.90;25.90;;;;;;;13.78;72.80;99680.72;104774;1254;68257;-63
2024/03/17 02:32:41;;;;;;;36.00;26.00;;;;;;;13.77;72.86;99682.70;104653;1253;72425;-65
2024/03/17 02:35:14;;;;;;;36.10;26.10;;;;;;;13.70;73.05;99679.20;106020;1252;60739;-61
2024/03/17 02:41:26;;;;;;;35.40;25.80;;;;;;;13.61;75.12;99681.80;104912;1256;74526;-62
2024/03/17 02:44:00;;;;;;;34.60;25.40;;;;;;;13.79;74.12;99677.99;105686;1256;68002;-61
2024/03/17 02:56:02;;;;;;;31.70;23.50;;;;;;;13.72;73.88;99668.35;105571;1252;60465;-62
2024/03/17 02:58:35;;;;;;;31.20;23.30;;;;;;;13.69;74.35;99664.29;105396;1253;73717;-62
2024/03/17 03:01:37;;;;;;;34.70;25.70;;;;;;;13.67;74.71;99659.64;106257;1256;69296;-62
2024/03/17 03:04:10;;;;;;;37.20;25.90;;;;;;;13.66;74.62;99659.67;104357;1253;72541;-61
2024/03/17 03:06:43;;;;;;;33.40;25.60;;;;;;;13.61;75.43;99659.44;105278;1251;61878;-62
2024/03/17 03:09:13;;;;;;;36.10;26.00;;;;;;;13.69;75.13;99660.77;107847;1252;61094;-65
2024/03/17 03:15:54;;;;;;;35.10;24.50;;;;;;;13.74;75.25;99656.07;105570;1253;70349;-61
2024/03/17 03:19:05;;;;;;;33.00;23.10;;;;;;;13.66;75.23;99656.52;105984;1256;73513;-61
2024/03/17 03:25:08;;;;;;;30.60;25.10;;;;;;;13.55;76.58;99653.61;105612;1253;60863;-62
2024/03/17 03:27:57;;;;;;;38.00;25.10;;;;;;;13.54;76.95;99652.77;105576;1253;74646;-62
2024/03/17 03:31:02;;;;;;;31.10;24.00;;;;;;;13.59;76.74;99653.70;106109;1251;69759;-62
2024/03/17 03:37:55;;;;;;;30.80;23.40;;;;;;;13.77;75.00;99648.70;104804;1252;62590;-60
2024/03/17 03:40:53;;;;;;;30.60;23.00;;;;;;;13.64;75.44;99644.12;105627;1253;60572;-62
2024/03/17 03:48:24;;;;;;;27.10;21.00;;;;;;;14.60;67.97;99628.25;107461;1251;69376;-61
2024/03/17 03:55:56;;;;;;;29.70;22.80;;;;;;;14.23;69.31;99630.23;107979;1251;61498;-61
2024/03/17 03:58:29;;;;;;;29.50;22.20;;;;;;;14.08;70.40;99632.66;104742;1256;61484;-61
2024/03/17 04:01:06;;;;;;;28.30;21.90;;;;;;;14.07;70.55;99636.27;104639;1255;73157;-61
2024/03/17 04:07:08;;;;;;;24.20;21.10;;;;;;;13.83;71.53;99638.85;106259;1251;73800;-61
2024/03/17 04:25:53;;;;;;;31.50;21.10;;;;;;;13.66;72.41;99638.38;106379;1253;73304;-61
2024/03/17 04:32:52;;;;;;;30.10;22.10;;;;;;;13.82;71.35;99634.50;106141;1255;60459;-61
2024/03/17 04:35:25;;;;;;;28.70;22.30;;;;;;;13.69;71.28;99633.81;105682;1250;73842;-61
2024/03/17 04:37:58;;;;;;;28.20;20.90;;;;;;;13.60;72.65;99631.98;105857;1253;69392;-60
2024/03/17 04:40:36;;;;;;;27.60;20.80;;;;;;;14.04;70.02;99628.83;106015;1253;73144;-61
2024/03/17 04:47:26;;;;;;;27.20;20.70;;;;;;;13.70;72.88;99624.60;105575;1251;60463;-61
2024/03/17 04:53:27;;;;;;;29.60;22.10;;;;;;;13.71;73.02;99622.61;105507;1253;69982;-60
2024/03/17 04:59:29;;;;;;;29.40;22.30;;;;;;;13.55;81.03;99620.98;102269;1286;614908;-63
2024/03/17 05:02:43;;;;;;;30.10;22.80;;;;;;;14.20;70.60;99615.94;104488;1264;59434;-61
2024/03/17 05:06:00;;;;;;;25.70;21.10;;;;;;;14.04;71.17;99612.13;104759;1256;59878;-60
2024/03/17 05:08:36;;;;;;;25.60;21.50;;;;;;;14.53;67.45;99610.14;105411;1254;72625;-61
2024/03/17 05:11:47;;;;;;;28.60;22.80;;;;;;;14.56;66.48;99609.41;105294;1256;70061;-61
2024/03/17 05:14:58;;;;;;;29.20;22.10;;;;;;;14.61;65.82;99603.88;104947;1251;72856;-61
2024/03/17 05:21:58;;;;;;;28.60;21.80;;;;;;;14.51;66.18;99608.63;104636;1252;59793;-60
2024/03/17 05:25:08;;;;;;;29.20;22.10;;;;;;;14.47;66.49;99612.61;105066;1251;71785;-60
2024/03/17 05:28:19;;;;;;;28.80;22.40;;;;;;;14.40;67.00;99619.20;105835;1251;69411;-61
2024/03/17 05:31:31;;;;;;;30.50;22.90;;;;;;;14.35;68.90;99623.70;107039;1252;73675;-60
2024/03/17 05:37:35;;;;;;;31.40;22.60;;;;;;;13.92;72.57;99631.99;105102;1251;60118;-60
2024/03/17 05:44:59;;;;;;;26.10;20.90;;;;;;;13.47;78.72;99630.95;105027;1251;70903;-63
2024/03/17 05:48:06;;;;;;;29.00;20.80;;;;;;;13.45;78.97;99641.30;105595;1253;72504;-61
2024/03/17 05:50:39;;;;;;;27.00;19.60;;;;;;;13.37;80.51;99643.14;105570;1251;60705;-62
2024/03/17 05:53:50;;;;;;;24.30;19.40;;;;;;;13.19;81.09;99644.77;104626;1254;60274;-61
2024/03/17 05:56:25;;;;;;;27.70;18.60;;;;;;;13.13;83.57;99639.46;105762;1250;71922;-63
2024/03/17 05:59:33;;;;;;;27.30;19.80;;;;;;;13.07;83.26;99640.14;106607;1251;69187;-62
2024/03/17 06:06:51;;;;;;;25.30;19.10;;;;;;;13.00;85.30;99638.53;105050;1249;60047;-62
2024/03/17 06:14:14;;;;;;;21.70;16.70;;;;;;;12.76;86.58;99635.40;105201;1250;74427;-63
2024/03/17 06:16:47;;;;;;;20.30;15.90;;;;;;;12.72;85.99;99635.96;104859;1256;69858;-62
2024/03/17 06:19:15;;;;;;;23.30;17.50;;;;;;;12.70;85.28;99638.02;105157;1250;73188;-62
2024/03/17 06:26:43;;;;;;;20.70;15.10;;;;;;;12.61;89.13;99637.05;105936;1254;59905;-62
2024/03/17 06:29:16;;;;;;;24.90;17.50;;;;;;;12.81;85.05;99635.31;105250;1253;73553;-64
2024/03/17 06:31:44;;;;;;;21.80;17.00;;;;;;;12.73;88.55;99637.00;105490;1250;69224;-63
2024/03/17 06:34:55;;;;;;;30.30;18.60;;;;;;;12.75;88.11;99637.23;107775;1250;72862;-60
2024/03/17 06:37:29;;;;;;;22.90;17.30;;;;;;;12.73;90.42;99637.35;105019;1254;61332;-62
2024/03/17 06:40:03;;;;;;;23.40;17.80;;;;;;;12.72;91.67;99645.27;106892;1251;59852;-65
2024/03/17 06:46:18;;;;;;;22.10;16.60;;;;;;;12.87;88.34;99648.04;105831;1254;70363;-63
2024/03/17 06:49:30;;;;;;;25.60;18.40;;;;;;;12.96;88.48;99646.32;107635;1250;72986;-60
2024/03/17 06:52:03;;;;;;;25.40;19.40;;;;;;;12.91;89.63;99646.80;108261;1250;59975;-60
2024/03/17 06:54:37;;;;;;;21.30;17.20;;;;;;;12.79;91.82;99643.16;106606;1256;60153;-64
2024/03/17 06:57:04;;;;;;;21.90;16.70;;;;;;;12.94;89.52;99642.77;104860;1256;72508;-62
2024/03/17 07:00:24;;;;;;;23.80;18.30;;;;;;;12.82;92.15;99640.23;106223;1257;70005;-60
2024/03/17 07:07:55;;;;;;;22.30;16.70;;;;;;;13.13;89.74;99636.64;105545;1253;60804;-59
2024/03/17 07:15:22;;;;;;;23.10;17.00;;;;;;;13.16;87.50;99640.90;106521;1251;73558;-60
2024/03/17 07:17:56;;;;;;;25.70;18.90;;;;;;;12.83;93.70;99643.34;106376;1253;69279;-59
2024/03/17 07:20:23;;;;;;;20.80;17.00;;;;;;;12.87;94.06;99636.95;105368;1254;73359;-61
2024/03/17 07:23:34;;;;;;;25.20;19.10;;;;;;;12.80;95.59;99640.14;106953;1250;63019;-61
2024/03/17 07:26:09;;;;;;;22.50;17.40;;;;;;;12.91;93.74;99636.95;106349;1250;61552;-63
2024/03/17 07:29:22;;;;;;;24.40;18.60;;;;;;;12.97;92.22;99632.55;107484;1253;73648;-61
2024/03/17 07:32:32;;;;;;;24.00;18.00;;;;;;;13.01;93.57;99632.15;106871;1250;70995;-61
2024/03/17 07:34:59;;;;;;;24.10;17.50;;;;;;;13.01;94.31;99627.05;106606;1253;73917;-61
2024/03/17 07:38:11;;;;;;;24.50;18.00;;;;;;;13.10;93.50;99624.99;106288;1252;61537;-61
2024/03/17 07:40:45;;;;;;;22.90;18.00;;;;;;;13.26;92.33;99624.83;106169;1249;61292;-61
2024/03/17 07:43:12;;;;;;;23.40;16.80;;;;;;;13.51;88.89;99617.73;106577;1253;73080;-61
2024/03/17 07:46:23;;;;;;;25.30;18.60;;;;;;;13.52;89.54;99619.23;107068;1251;68420;-62
2024/03/17 07:48:56;;;;;;;23.30;17.70;;;;;;;13.43;90.86;99614.98;106825;1256;72207;-61
2024/03/17 07:52:07;;;;;;;24.00;17.40;;;;;;;13.49;90.50;99615.35;106052;1253;60794;-62
2024/03/17 07:55:18;;;;;;;26.30;18.00;;;;;;;13.62;89.47;99615.36;107322;1249;60518;-62
2024/03/17 08:01:39;;;;;;;23.80;18.40;;;;;;;13.61;89.58;99608.70;105634;1250;69755;-61
2024/03/17 08:17:50;;;;;;;25.80;19.20;;;;;;;13.65;89.35;99607.23;106064;1250;73791;-62
2024/03/17 08:20:23;;;;;;;31.00;20.10;;;;;;;13.75;88.23;99604.42;105979;1250;69417;-63
2024/03/17 08:26:40;;;;;;;32.70;22.30;;;;;;;13.70;87.84;99603.09;106544;1254;60840;-63
2024/03/17 08:29:59;;;;;;;34.70;23.40;;;;;;;13.74;88.34;99598.31;105419;1256;59847;-63
2024/03/17 08:32:26;;;;;;;37.40;24.10;;;;;;;13.87;87.81;99594.39;105904;1251;75998;-61
2024/03/17 08:34:55;;;;;;;37.50;25.20;;;;;;;13.93;86.39;99592.13;105737;1251;69823;-62
2024/03/17 08:37:25;;;;;;;;;;;;;;;13.92;86.86;99590.79;105428;1250;73507;-62
2024/03/17 08:40:38;;;;;;;39.80;24.90;;;;;;;14.04;86.18;99587.56;105642;1249;60007;-62
2024/03/17 08:43:05;;;;;;;48.30;28.90;;;;;;;14.10;85.59;99581.59;105746;1250;60194;-63
2024/03/17 08:49:27;;;;;;;60.10;32.10;;;;;;;14.30;83.33;99571.77;105734;1250;69010;-64
2024/03/17 08:56:51;;;;;;;65.30;35.70;;;;;;;14.40;81.72;99583.02;106514;1253;62588;-61
2024/03/17 08:59:24;;;;;;;456.50;310.40;;;;;;;14.36;81.65;99579.90;107103;1250;61509;-62
2024/03/17 09:01:58;;;;;;;159.30;100.60;;;;;;;14.39;82.39;99578.67;106678;1258;73204;-62
2024/03/17 09:04:35;;;;;;;102.50;61.60;;;;;;;14.43;82.06;99580.22;107143;1249;69336;-62
2024/03/17 09:11:37;;;;;;;91.40;55.30;;;;;;;14.55;79.53;99577.21;107154;1250;61099;-61
2024/03/17 09:14:04;;;;;;;208.00;141.40;;;;;;;14.60;79.57;99573.02;106707;1251;60106;-61
2024/03/17 09:16:38;;;;;;;521.10;291.00;;;;;;;14.53;78.86;99571.66;107527;1249;71942;-60
2024/03/17 09:19:30;;;;;;;277.40;169.30;;;;;;;14.64;79.40;99571.00;106651;1250;69552;-61
2024/03/17 09:22:48;;;;;;;515.00;328.10;;;;;;;14.74;77.49;99570.60;106743;1250;72470;-60
2024/03/17 09:25:19;;;;;;;369.30;162.70;;;;;;;14.61;78.51;99565.05;106750;1257;61958;-63
2024/03/17 09:28:21;;;;;;;188.90;99.30;;;;;;;14.54;80.02;99564.00;106210;1250;59775;-59
2024/03/17 09:30:50;;;;;;;88.30;49.40;;;;;;;14.54;79.78;99560.84;106726;1250;73171;-60
2024/03/17 09:34:04;;;;;;;74.30;44.10;;;;;;;14.60;79.87;99562.48;105853;1249;69837;-61
2024/03/17 09:37:16;;;;;;;86.70;54.50;;;;;;;14.69;79.68;99564.55;106923;1253;73397;-60
2024/03/17 09:40:06;;;;;;;68.50;38.60;;;;;;;14.74;80.13;99563.70;108568;1250;61095;-63
2024/03/17 09:43:16;;;;;;;57.00;33.70;;;;;;;14.80;79.33;99565.31;108288;1250;59853;-63
2024/03/17 09:46:02;;;;;;;53.60;33.00;;;;;;;14.87;78.95;99560.98;105939;1250;74809;-62
2024/03/17 09:49:13;;;;;;;45.00;28.50;;;;;;;14.91;78.72;99562.51;106061;1253;69934;-62
2024/03/17 09:52:27;;;;;;;49.70;29.50;;;;;;;14.98;76.72;99560.82;107249;1250;73115;-63
2024/03/17 09:55:01;;;;;;;47.50;31.50;;;;;;;14.96;76.43;99562.55;107170;1250;61766;-61
2024/03/17 09:57:34;;;;;;;50.90;31.40;;;;;;;14.87;77.93;99562.92;106946;1250;60212;-61
2024/03/17 10:00:43;;;;;;;52.80;35.00;;;;;;;14.88;77.92;99558.63;106939;1250;72247;-60
2024/03/17 10:03:55;;;;;;;51.90;32.30;;;;;;;14.97;77.30;99556.30;106581;1251;69347;-60
2024/03/17 10:06:51;;;;;;;46.70;30.60;;;;;;;14.88;77.10;99558.60;107287;1250;72758;-61
2024/03/17 10:09:25;;;;;;;41.20;28.70;;;;;;;14.82;77.63;99550.87;106402;1251;60905;-61
2024/03/17 10:11:59;;;;;;;40.60;26.60;;;;;;;14.59;79.80;99550.33;105650;1251;60451;-65
2024/03/17 10:15:10;;;;;;;34.50;25.00;;;;;;;14.78;78.42;99547.91;106222;1258;73533;-61
2024/03/17 10:18:23;;;;;;;34.20;25.70;;;;;;;14.86;77.28;99551.90;105656;1249;69811;-62
2024/03/17 10:21:02;;;;;;;34.40;23.90;;;;;;;14.82;77.59;99553.19;104805;1253;72623;-61
2024/03/17 10:28:33;;;;;;;33.10;24.30;;;;;;;14.74;77.36;99531.77;106332;1253;60624;-61
2024/03/17 10:31:29;;;;;;;35.50;23.90;;;;;;;14.77;77.68;99548.21;106177;1256;74009;-60
2024/03/17 10:34:39;;;;;;;32.00;23.60;;;;;;;14.82;78.08;99544.17;107142;1253;68404;-60
2024/03/17 10:37:26;;;;;;;31.30;23.60;;;;;;;14.95;76.69;99537.22;108448;1250;73037;-61
2024/03/17 10:48:39;;;;;;;29.40;21.80;;;;;;;15.17;75.01;99528.21;105802;1253;73473;-60
2024/03/17 10:51:06;;;;;;;30.80;22.50;;;;;;;15.43;73.57;99526.75;106059;1253;69593;-60
2024/03/17 10:53:34;;;;;;;33.20;24.30;;;;;;;15.34;73.32;99527.13;105655;1250;72954;-60
2024/03/17 11:00:17;;;;;;;46.20;31.50;;;;;;;15.52;73.27;99521.02;105584;1252;60490;-60
2024/03/17 11:03:29;;;;;;;46.10;31.30;;;;;;;15.54;72.81;99517.56;104597;1250;72825;-60
2024/03/17 11:06:05;;;;;;;39.40;28.50;;;;;;;15.55;71.68;99515.92;106317;1250;68615;-62
2024/03/17 11:09:28;;;;;;;31.80;22.90;;;;;;;15.75;69.62;99503.49;106458;1257;72961;-61
2024/03/17 11:16:58;;;;;;;32.90;23.10;;;;;;;15.85;67.93;99505.33;105998;1250;60621;-62
2024/03/17 11:20:09;;;;;;;27.10;21.20;;;;;;;15.84;67.59;99500.77;107477;1249;75448;-62
2024/03/17 11:22:46;;;;;;;27.90;20.40;;;;;;;15.75;67.98;99499.03;105582;1253;71707;-63
2024/03/17 11:25:57;;;;;;;25.30;20.40;;;;;;;15.85;67.76;99493.94;105541;1254;72247;-62
2024/03/17 11:28:44;;;;;;;24.30;20.10;;;;;;;15.79;67.75;99489.94;105959;1250;61110;-62
2024/03/17 11:36:15;;;;;;;23.80;18.80;;;;;;;15.94;67.38;99489.28;107025;1249;75185;-62
2024/03/17 11:38:52;;;;;;;22.60;19.50;;;;;;;16.08;66.70;99482.90;106329;1250;68859;-62
2024/03/17 11:41:48;;;;;;;24.50;19.00;;;;;;;16.00;66.80;99480.63;106037;1250;72311;-64
2024/03/17 11:44:22;;;;;;;21.70;18.60;;;;;;;15.98;67.78;99475.44;106751;1253;62996;-62
2024/03/17 11:47:06;;;;;;;23.80;18.70;;;;;;;16.02;67.66;99476.59;106957;1250;60796;-61
2024/03/17 11:54:31;;;;;;;23.80;19.50;;;;;;;16.21;65.67;99474.23;107396;1250;71150;-60
2024/03/17 11:57:01;;;;;;;26.60;19.50;;;;;;;15.88;67.80;99469.03;106751;1250;71488;-61
2024/03/17 12:03:35;;;;;;;24.30;19.00;;;;;;;17.02;62.40;99463.60;105946;1253;60546;-61
2024/03/17 12:06:37;;;;;;;24.90;20.50;;;;;;;17.17;60.54;99460.57;107233;1250;74635;-61
2024/03/17 12:13:34;;;;;;;25.40;18.60;;;;;;;16.76;61.84;99459.09;105947;1250;73844;-60
2024/03/17 12:16:48;;;;;;;21.50;18.60;;;;;;;16.61;62.46;99457.30;107577;1250;64408;-61
2024/03/17 12:20:00;;;;;;;21.90;19.00;;;;;;;16.70;62.09;99453.06;106817;1253;62190;-60
2024/03/17 12:23:13;;;;;;;24.10;18.50;;;;;;;16.52;62.94;99448.70;106100;1250;73668;-60
2024/03/17 12:25:40;;;;;;;23.10;18.60;;;;;;;16.36;63.54;99434.31;106103;1250;69967;-61
2024/03/17 12:28:15;;;;;;;23.40;19.40;;;;;;;16.59;62.23;99446.66;107489;1250;73111;-61
2024/03/17 12:31:04;;;;;;;23.20;18.90;;;;;;;16.62;62.07;99449.79;105476;1257;62009;-60
2024/03/17 12:34:16;;;;;;;22.00;18.30;;;;;;;16.83;60.27;99444.59;105997;1250;60868;-62
2024/03/17 12:37:36;;;;;;;27.20;24.10;;;;;;;16.79;60.32;99443.96;106646;1253;74337;-61
2024/03/17 12:40:47;;;;;;;21.80;18.60;;;;;;;16.81;60.68;99441.73;107618;1249;68561;-61
2024/03/17 12:43:58;;;;;;;24.30;20.80;;;;;;;16.95;59.92;99444.80;105875;1251;73154;-59
2024/03/17 12:46:25;;;;;;;26.30;21.30;;;;;;;16.95;59.68;99447.45;105748;1251;61600;-59
2024/03/17 12:48:58;;;;;;;21.90;18.60;;;;;;;17.00;59.80;99446.23;104794;1251;60196;-59
2024/03/17 12:52:09;;;;;;;23.40;19.10;;;;;;;16.95;59.92;99441.64;105545;1249;73978;-60
2024/03/17 13:02:29;;;;;;;20.50;17.50;;;;;;;17.32;57.73;99437.66;107698;1249;61804;-60
2024/03/17 13:05:16;;;;;;;24.00;19.80;;;;;;;17.27;57.48;99430.58;106817;1251;59592;-59
2024/03/17 13:07:49;;;;;;;24.70;19.90;;;;;;;17.22;58.01;99434.35;106318;1253;73826;-59
2024/03/17 13:10:21;;;;;;;23.10;19.40;;;;;;;17.10;58.34;99434.52;105620;1253;68507;-59
2024/03/17 13:13:23;;;;;;;23.50;19.00;;;;;;;16.93;59.26;99433.95;105706;1253;73410;-60
2024/03/17 13:15:55;;;;;;;25.00;18.20;;;;;;;17.04;58.86;99425.21;104874;1261;61701;-59
2024/03/17 13:19:03;;;;;;;24.80;19.90;;;;;;;17.17;58.00;99422.65;105636;1253;60424;-59
2024/03/17 13:26:02;;;;;;;22.10;18.00;;;;;;;17.09;58.25;99412.27;105700;1253;69423;-62
2024/03/17 13:32:20;;;;;;;21.40;19.10;;;;;;;17.26;57.39;99403.94;106976;1251;61847;-62
2024/03/17 13:34:46;;;;;;;24.40;19.30;;;;;;;17.28;57.27;99396.87;108017;1250;59900;-60
2024/03/17 13:41:46;;;;;;;21.50;18.30;;;;;;;17.33;58.33;99384.64;106358;1250;69432;-60
2024/03/17 13:49:17;;;;;;;20.60;17.90;;;;;;;17.99;56.72;99383.20;106687;1253;63333;-60
2024/03/17 13:52:28;;;;;;;24.10;20.30;;;;;;;18.03;55.55;99385.54;107377;1253;60392;-58
2024/03/17 13:55:08;;;;;;;23.60;18.30;;;;;;;18.21;55.33;99372.61;105838;1254;74470;-60
2024/03/17 13:57:44;;;;;;;21.30;18.80;;;;;;;18.18;55.87;99373.90;107994;1253;68875;-61
2024/03/17 14:00:52;;;;;;;23.00;19.40;;;;;;;18.25;55.12;99366.81;105388;1256;72508;-60
2024/03/17 14:03:43;;;;;;;21.70;18.90;;;;;;;18.21;55.13;99364.08;106015;1250;61918;-61
2024/03/17 14:06:10;;;;;;;23.30;18.40;;;;;;;17.84;56.19;99369.27;105601;1254;60418;-61
2024/03/17 14:09:12;;;;;;;22.70;19.40;;;;;;;17.76;56.49;99364.22;105174;1253;73453;-62
2024/03/17 14:16:04;;;;;;;21.70;18.80;;;;;;;17.72;56.60;99361.27;105919;1251;75575;-58
2024/03/17 14:18:37;;;;;;;22.10;19.50;;;;;;;17.88;55.82;99359.00;105612;1253;61950;-58
2024/03/17 14:25:37;;;;;;;21.70;18.80;;;;;;;17.81;55.79;99355.48;106427;1253;73811;-61
2024/03/17 14:28:48;;;;;;;22.10;19.30;;;;;;;17.65;56.12;99351.90;107279;1250;69483;-61
2024/03/17 14:31:59;;;;;;;23.40;18.60;;;;;;;17.69;56.42;99347.02;105532;1251;73240;-60
2024/03/17 14:35:13;;;;;;;24.10;20.30;;;;;;;17.61;57.03;99345.53;105208;1254;61654;-59
2024/03/17 14:41:16;;;;;;;26.10;19.00;;;;;;;17.53;57.42;99340.96;105582;1255;73858;-58
2024/03/17 14:43:44;;;;;;;20.90;18.60;;;;;;;17.69;56.94;99335.31;104675;1264;70149;-59
2024/03/17 14:46:57;;;;;;;23.00;20.40;;;;;;;17.73;56.51;99332.70;105609;1256;72425;-58
2024/03/17 14:49:31;;;;;;;24.90;20.40;;;;;;;17.71;56.55;99330.55;106334;1253;61595;-60
2024/03/17 14:52:41;;;;;;;22.40;20.00;;;;;;;17.72;56.47;99331.03;104773;1254;61528;-60
2024/03/17 14:55:52;;;;;;;24.00;20.10;;;;;;;17.67;56.87;99328.38;107642;1249;72899;-60
2024/03/17 15:02:08;;;;;;;22.10;19.00;;;;;;;17.34;58.60;99326.48;104637;1266;72758;-60
2024/03/17 15:05:14;;;;;;;24.00;19.70;;;;;;;17.43;58.51;99327.04;105864;1254;61959;-60
2024/03/17 15:08:35;;;;;;;25.30;21.40;;;;;;;17.54;57.88;99322.98;105755;1251;60559;-61
2024/03/17 15:14:37;;;;;;;24.00;20.30;;;;;;;17.66;57.56;99316.05;104829;1254;69923;-60
2024/03/17 15:21:59;;;;;;;26.90;21.10;;;;;;;17.50;58.12;99317.95;104581;1259;63314;-60
2024/03/17 15:24:31;;;;;;;27.90;22.60;;;;;;;17.48;58.30;99321.16;104988;1253;60984;-59
2024/03/17 15:27:05;;;;;;;27.70;23.50;;;;;;;17.51;58.19;99322.33;104607;1255;73890;-60
2024/03/17 15:30:18;;;;;;;25.60;22.50;;;;;;;17.56;58.09;99320.56;104678;1266;70251;-60
2024/03/17 15:37:17;;;;;;;25.60;21.50;;;;;;;17.61;57.87;99318.17;104890;1255;60990;-61
2024/03/17 15:43:39;;;;;;;28.30;23.60;;;;;;;17.69;57.56;99316.50;105125;1258;73783;-60
2024/03/17 15:46:50;;;;;;;26.40;23.00;;;;;;;17.78;57.14;99318.85;104703;1254;69414;-60
2024/03/17 15:50:01;;;;;;;28.60;25.30;;;;;;;17.71;57.33;99319.02;106476;1251;72997;-61
2024/03/17 15:53:12;;;;;;;29.30;23.90;;;;;;;17.66;57.57;99318.88;106008;1251;61932;-60
2024/03/17 15:55:55;;;;;;;31.00;25.70;;;;;;;17.61;58.21;99321.92;104695;1254;60011;-60
2024/03/17 16:02:45;;;;;;;32.00;27.00;;;;;;;17.47;59.45;99321.23;106214;1253;70762;-60
2024/03/17 16:08:49;;;;;;;31.40;26.60;;;;;;;17.49;59.14;99323.94;107041;1250;63683;-59
2024/03/17 16:15:12;;;;;;;40.20;28.70;;;;;;;17.53;59.09;99324.66;105048;1251;73918;-62
2024/03/17 16:21:33;;;;;;;44.10;32.40;;;;;;;17.34;59.12;99306.46;105355;1250;73039;-60
2024/03/17 16:24:11;;;;;;;39.50;31.50;;;;;;;17.52;59.10;99323.85;104663;1258;61893;-62
2024/03/17 16:27:23;;;;;;;39.80;30.90;;;;;;;17.58;58.92;99323.38;104821;1250;60587;-62
2024/03/17 16:30:33;;;;;;;43.10;34.80;;;;;;;17.60;59.27;99323.21;105167;1253;74243;-61
2024/03/17 16:33:16;;;;;;;39.40;31.60;;;;;;;17.62;59.38;99323.27;105227;1253;69664;-62
2024/03/17 16:35:51;;;;;;;40.70;32.80;;;;;;;17.54;60.04;99324.94;106522;1251;72984;-62
2024/03/17 16:38:18;;;;;;;39.50;32.60;;;;;;;17.50;60.77;99322.09;104959;1267;62011;-63
2024/03/17 16:44:53;;;;;;;42.50;33.80;;;;;;;17.41;62.52;99320.10;105222;1251;74314;-63
2024/03/17 16:58:59;;;;;;;42.70;34.20;;;;;;;17.67;62.14;99326.42;105322;1251;60530;-64
2024/03/17 17:05:58;;;;;;;40.10;33.40;;;;;;;17.52;64.19;99318.56;105100;1251;69548;-62
2024/03/17 17:15:40;;;;;;;40.10;33.60;;;;;;;16.72;78.08;99335.36;101322;1291;618192;-63
2024/03/17 17:18:49;;;;;;;39.80;35.00;;;;;;;17.44;69.30;99335.27;104461;1257;61622;-62
2024/03/17 17:28:40;;;;;;;40.40;33.40;;;;;;;16.98;75.27;99335.91;100363;1263;5491262;-62
2024/03/17 17:36:08;;;;;;;42.20;35.70;;;;;;;16.82;78.62;99336.17;104835;1257;61854;-61
2024/03/17 17:39:20;;;;;;;41.10;33.80;;;;;;;16.54;81.61;99333.95;104582;1256;59908;-61
2024/03/17 17:46:05;;;;;;;37.30;32.70;;;;;;;16.48;83.87;99331.14;105262;1259;69773;-64
2024/03/17 17:53:36;;;;;;;42.80;35.10;;;;;;;16.36;88.41;99327.23;104666;1256;62401;-60
2024/03/17 17:56:10;;;;;;;40.00;34.60;;;;;;;16.31;87.85;99326.25;104260;1278;60555;-62
2024/03/17 18:03:09;;;;;;;40.10;34.40;;;;;;;16.65;84.25;99324.63;105054;1255;69951;-62
2024/03/17 18:06:04;;;;;;;39.80;33.70;;;;;;;16.69;83.62;99323.45;105537;1257;72526;-62